Terminal Aerodrome Forecast
Issued by NWS

Home | Current Version | Previous Version | Text Only | Print | Product List | Glossary On
Versions: 1 2 3 4 5 6 7 8 9 10 11 12 13 14 15 16 17 18 19 20
475
FTUS43 KIWX 181120
TAFSBN
TAF
KSBN 181120Z 1812/1912 26008KT 2SM BR OVC004
     FM181400 25008KT 3SM BR OVC006
     FM181600 23010KT P6SM OVC008
     FM181900 22010KT P6SM BKN012
     FM182200 21006KT P6SM SCT015=

USA.gov is the U.S. government's official web portal to all federal, state and local government web resources and services.